Main page
METAR-TAF:

METAR-TAF

Airports :

Oil platform

P11-b, Netherlands

latitude: 52-21-36N, longitude: 3-20-30E, elevation: 24 m

Current weather observation

The report was made 40 minutes ago, at 19:55 UTC
Wind 35 kt from the Southwest
Temperature 16°C
Humidity 82%
Pressure 1006 hPa
Visibility 10 km or more
Few clouds at a height lower than 100 ft
light drizzle, rain

METAR: EHPG 281955Z AUTO 23035KT 9999 -DZRA FEW000 16/13 Q1006 REDZ

Time: 22:35 (20:35 UTC)


TAF: missing

Weather observations and forecasts of more than 4000 airports (METAR and TAF reports).

The available stations are represented by yellow and red dots on the map.

Hover mouse over dot to see the name of the station.

Then click to see weather observations and forecasts.

To change the map : click on the green buttons with a black cross to zoom in, on the green button with a dash to zoom out, or on the green arrows for adjacent maps.


METAR-TAF: